createdAt,value
2023-05-21T00:02:45.180Z,19.80
2023-05-21T00:07:47.401Z,19.90
2023-05-21T00:12:49.411Z,19.80
2023-05-21T00:17:51.591Z,19.80
2023-05-21T00:22:53.970Z,19.80
2023-05-21T00:27:56.283Z,19.80
2023-05-21T00:32:58.934Z,19.80
2023-05-21T00:38:01.389Z,19.80
2023-05-21T00:43:03.476Z,19.70
2023-05-21T00:48:06.269Z,19.70
2023-05-21T00:53:09.629Z,19.70
2023-05-21T00:58:11.863Z,19.70
2023-05-21T01:03:14.608Z,19.70
2023-05-21T01:08:17.950Z,19.70
2023-05-21T01:13:22.514Z,19.70
2023-05-21T01:18:24.849Z,19.70
2023-05-21T01:23:27.052Z,19.70
2023-05-21T01:28:29.879Z,19.60
2023-05-21T01:33:43.442Z,19.60
2023-05-21T01:38:50.014Z,19.60
2023-05-21T01:43:52.707Z,19.60
2023-05-21T01:48:55.812Z,19.50
2023-05-21T01:53:58.001Z,19.60
2023-05-21T01:59:00.292Z,19.50
2023-05-21T02:04:02.581Z,19.50
2023-05-21T02:14:10.291Z,19.50
2023-05-21T02:19:12.523Z,19.50
2023-05-21T02:24:14.946Z,19.40
2023-05-21T02:29:17.112Z,19.40
2023-05-21T02:34:20.782Z,19.40
2023-05-21T02:39:23.009Z,19.40
2023-05-21T02:44:25.128Z,19.30
2023-05-21T02:49:27.197Z,19.30
2023-05-21T02:54:29.586Z,19.30
2023-05-21T02:59:31.629Z,19.30
2023-05-21T03:04:38.731Z,19.30
2023-05-21T03:09:44.296Z,19.20
2023-05-21T03:14:46.645Z,19.30
2023-05-21T03:19:49.388Z,19.30
2023-05-21T03:24:51.654Z,19.30
2023-05-21T03:29:55.952Z,19.20
2023-05-21T03:34:59.264Z,19.30
2023-05-21T03:40:01.407Z,19.30
2023-05-21T03:45:06.490Z,19.30
2023-05-21T03:50:12.284Z,19.20
2023-05-21T03:55:14.397Z,19.30
2023-05-21T04:00:16.523Z,19.20
2023-05-21T04:05:18.320Z,19.20
2023-05-21T04:10:20.678Z,19.20
2023-05-21T04:15:24.610Z,19.20
2023-05-21T04:20:26.731Z,19.20
2023-05-21T04:25:29.780Z,19.20
2023-05-21T04:30:35.414Z,19.30
2023-05-21T04:35:44.527Z,19.20
2023-05-21T04:40:48.018Z,19.30
2023-05-21T04:45:51.111Z,19.20
2023-05-21T04:50:54.079Z,19.20
2023-05-21T04:55:59.392Z,19.20
2023-05-21T05:01:03.631Z,19.30
2023-05-21T05:06:07.681Z,19.30
2023-05-21T05:11:09.877Z,19.30
2023-05-21T05:16:12.888Z,19.30
2023-05-21T05:21:16.355Z,19.30
2023-05-21T05:26:19.319Z,19.30
2023-05-21T05:31:21.514Z,19.30
2023-05-21T05:36:24.134Z,19.50
2023-05-21T05:41:27.459Z,19.50
2023-05-21T05:46:30.619Z,19.60
2023-05-21T05:51:33.013Z,19.80
2023-05-21T05:56:35.193Z,20.00
2023-05-21T06:01:39.967Z,20.10
2023-05-21T06:06:42.201Z,20.40
2023-05-21T06:11:44.750Z,20.60
2023-05-21T06:16:46.870Z,20.80
2023-05-21T06:21:49.260Z,21.00
2023-05-21T06:31:55.022Z,21.50
2023-05-21T06:36:57.164Z,21.70
2023-05-21T06:41:59.520Z,22.10
2023-05-21T06:47:13.098Z,22.30
2023-05-21T06:52:15.145Z,22.40
2023-05-21T06:57:17.887Z,22.60
2023-05-21T07:02:20.209Z,22.70
2023-05-21T07:07:23.127Z,22.80
2023-05-21T07:12:26.380Z,22.90
2023-05-21T07:17:28.611Z,23.10
2023-05-21T07:22:30.901Z,23.20
2023-05-21T07:27:33.065Z,23.30
2023-05-21T07:32:35.738Z,23.40
2023-05-21T07:37:38.053Z,23.40
2023-05-21T07:42:40.455Z,23.60
2023-05-21T07:47:45.034Z,23.70
2023-05-21T07:52:48.263Z,23.80
2023-05-21T07:57:52.399Z,24.10
2023-05-21T08:02:58.027Z,24.40
2023-05-21T08:08:00.573Z,24.70
2023-05-21T08:13:03.824Z,25.10
2023-05-21T08:18:06.567Z,25.30
2023-05-21T08:23:09.609Z,25.50
2023-05-21T08:28:13.156Z,25.90
2023-05-21T08:33:15.830Z,26.10
2023-05-21T08:38:19.631Z,26.40
2023-05-21T08:43:27.557Z,26.50
2023-05-21T08:48:30.854Z,26.50
2023-05-21T08:53:34.497Z,26.70
2023-05-21T08:58:37.644Z,26.90
2023-05-21T09:03:41.070Z,27.00
2023-05-21T09:08:47.940Z,27.20
2023-05-21T09:13:51.430Z,27.40
2023-05-21T09:18:54.156Z,27.60
2023-05-21T09:23:57.182Z,27.70
2023-05-21T09:29:00.323Z,27.70
2023-05-21T09:34:02.516Z,27.60
2023-05-21T09:39:05.910Z,27.60
2023-05-21T09:44:10.621Z,27.50
2023-05-21T09:49:22.346Z,27.50
2023-05-21T09:54:30.743Z,27.50
2023-05-21T09:59:39.261Z,27.50
2023-05-21T10:04:42.398Z,27.50
2023-05-21T10:09:46.833Z,27.50
2023-05-21T10:14:52.123Z,27.50
2023-05-21T10:19:55.821Z,27.80
2023-05-21T10:24:58.785Z,28.10
2023-05-21T10:30:01.669Z,28.30
2023-05-21T10:35:03.875Z,28.40
2023-05-21T10:40:06.429Z,28.50
2023-05-21T10:45:23.921Z,28.80
2023-05-21T10:50:44.908Z,29.00
2023-05-21T10:56:06.760Z,29.10
2023-05-21T11:01:09.779Z,29.20
2023-05-21T11:06:21.990Z,29.20
2023-05-21T11:11:45.232Z,29.50
2023-05-21T11:16:47.405Z,29.60
2023-05-21T11:21:55.336Z,29.80
2023-05-21T11:26:58.604Z,29.90
2023-05-21T11:32:05.497Z,30.00
2023-05-21T11:37:33.377Z,30.10
2023-05-21T11:42:39.379Z,30.30
2023-05-21T11:47:41.740Z,30.50
2023-05-21T11:52:44.384Z,30.50
2023-05-21T11:57:47.904Z,30.60
2023-05-21T12:02:51.414Z,30.80
2023-05-21T12:12:57.765Z,31.20
2023-05-21T12:18:01.204Z,31.30
2023-05-21T12:23:03.603Z,31.40
2023-05-21T12:28:05.901Z,31.50
2023-05-21T12:33:07.967Z,31.60
2023-05-21T12:38:10.093Z,31.70
2023-05-21T12:43:12.387Z,31.80
2023-05-21T12:48:14.500Z,32.00
2023-05-21T12:53:16.576Z,32.20
2023-05-21T12:58:21.612Z,32.40
2023-05-21T13:03:23.691Z,32.50
2023-05-21T13:08:25.816Z,32.80
2023-05-21T13:13:27.918Z,32.90
2023-05-21T13:18:29.996Z,33.20
2023-05-21T13:23:32.171Z,33.20
2023-05-21T13:28:34.200Z,33.40
2023-05-21T13:33:36.442Z,33.40
2023-05-21T13:38:38.645Z,33.50
2023-05-21T13:43:44.374Z,33.50
2023-05-21T13:48:46.459Z,33.60
2023-05-21T13:53:48.729Z,33.60
2023-05-21T13:58:50.817Z,34.00
2023-05-21T14:03:52.896Z,34.20
2023-05-21T14:08:54.948Z,34.20
2023-05-21T14:13:57.065Z,34.20
2023-05-21T14:18:59.473Z,34.40
2023-05-21T14:24:01.675Z,34.50
2023-05-21T14:34:08.922Z,34.80
2023-05-21T14:39:11.033Z,35.30
2023-05-21T14:44:13.092Z,35.60
2023-05-21T14:49:15.155Z,36.00
2023-05-21T14:54:17.221Z,36.50
2023-05-21T14:59:19.350Z,36.90
2023-05-21T15:04:21.471Z,36.90
2023-05-21T15:09:23.558Z,37.50
2023-05-21T15:14:25.587Z,37.80
2023-05-21T15:19:27.892Z,38.40
2023-05-21T15:24:30.445Z,38.80
2023-05-21T15:29:32.530Z,39.20
2023-05-21T15:34:34.643Z,39.60
2023-05-21T15:39:36.670Z,39.80
2023-05-21T15:44:39.056Z,39.90
2023-05-21T15:49:41.220Z,40.00
2023-05-21T15:54:43.277Z,40.00
2023-05-21T15:59:45.389Z,40.10
2023-05-21T16:04:49.909Z,40.30
2023-05-21T16:09:51.981Z,40.70
2023-05-21T16:14:54.114Z,41.10
2023-05-21T16:19:56.174Z,41.50
2023-05-21T16:24:58.224Z,41.80
2023-05-21T16:30:00.276Z,42.20
2023-05-21T16:35:02.383Z,42.40
2023-05-21T16:40:04.704Z,42.50
2023-05-21T16:45:07.168Z,42.60
2023-05-21T16:50:09.622Z,42.50
2023-05-21T16:55:11.935Z,42.40
2023-05-21T17:00:14.184Z,42.20
2023-05-21T17:05:16.321Z,41.70
2023-05-21T17:10:19.297Z,40.50
2023-05-21T17:15:21.467Z,39.80
2023-05-21T17:20:25.536Z,38.60
2023-05-21T17:25:27.674Z,37.70
2023-05-21T17:30:29.745Z,37.00
2023-05-21T17:35:31.834Z,36.20
2023-05-21T17:40:33.872Z,35.60
2023-05-21T17:45:36.321Z,35.00
2023-05-21T17:50:38.639Z,34.80
2023-05-21T17:55:40.789Z,34.10
2023-05-21T18:00:42.895Z,34.00
2023-05-21T18:05:45.018Z,33.80
2023-05-21T18:10:48.040Z,33.50
2023-05-21T18:15:50.415Z,33.30
2023-05-21T18:20:52.776Z,32.90
2023-05-21T18:31:00.797Z,32.10
2023-05-21T18:36:03.168Z,31.60
2023-05-21T18:41:06.003Z,31.20
2023-05-21T18:46:08.078Z,30.80
2023-05-21T18:51:10.288Z,30.50
2023-05-21T18:56:12.343Z,30.10
2023-05-21T19:01:14.468Z,29.70
2023-05-21T19:06:16.620Z,29.30
2023-05-21T19:11:19.043Z,29.00
2023-05-21T19:21:23.662Z,28.20
2023-05-21T19:26:25.758Z,27.80
2023-05-21T19:31:27.866Z,27.50
2023-05-21T19:36:37.936Z,27.20
2023-05-21T19:41:46.806Z,26.90
2023-05-21T19:46:49.811Z,26.60
2023-05-21T19:51:54.611Z,26.40
2023-05-21T19:56:57.285Z,26.10
2023-05-21T20:01:59.406Z,25.90
2023-05-21T20:07:01.428Z,25.60
2023-05-21T20:12:03.736Z,25.30
2023-05-21T20:17:05.864Z,25.00
2023-05-21T20:22:08.028Z,24.80
2023-05-21T20:27:10.163Z,24.60
2023-05-21T20:32:12.594Z,24.40
2023-05-21T20:37:14.691Z,24.20
2023-05-21T20:42:17.512Z,24.00
2023-05-21T20:47:20.274Z,23.80
2023-05-21T20:52:22.618Z,23.60
2023-05-21T20:57:26.203Z,23.40
2023-05-21T21:02:28.512Z,23.30
2023-05-21T21:07:31.965Z,23.10
2023-05-21T21:12:34.026Z,23.00
2023-05-21T21:17:36.160Z,22.90
2023-05-21T21:27:40.748Z,22.60
2023-05-21T21:32:42.918Z,22.50
2023-05-21T21:42:48.122Z,22.30
2023-05-21T21:47:50.305Z,22.10
2023-05-21T21:52:55.785Z,22.10
2023-05-21T21:57:57.928Z,22.00
2023-05-21T22:03:00.072Z,21.90
2023-05-21T22:13:05.412Z,21.70
2023-05-21T22:18:09.672Z,21.60
2023-05-21T22:23:11.982Z,21.50
2023-05-21T22:28:14.641Z,21.40
2023-05-21T22:33:16.884Z,21.30
2023-05-21T22:38:19.084Z,21.20
2023-05-21T22:43:21.215Z,21.10
2023-05-21T22:48:23.275Z,21.00
2023-05-21T22:53:25.601Z,20.90
2023-05-21T22:58:27.719Z,20.80
2023-05-21T23:03:29.834Z,20.70
2023-05-21T23:08:31.838Z,20.60
2023-05-21T23:13:33.886Z,20.50
2023-05-21T23:28:43.352Z,20.30
2023-05-21T23:33:45.514Z,20.20
2023-05-21T23:38:47.581Z,20.10
2023-05-21T23:43:50.079Z,20.10
2023-05-21T23:48:52.164Z,20.00
2023-05-21T23:53:54.265Z,19.90
2023-05-21T23:58:56.412Z,19.90
